createdAt,value
2022-10-25T00:01:48.331Z,33.40
2022-10-25T00:04:50.603Z,33.60
2022-10-25T00:07:52.577Z,33.70
2022-10-25T00:10:55.292Z,34.10
2022-10-25T00:13:59.252Z,34.10
2022-10-25T00:17:01.440Z,34.00
2022-10-25T00:20:04.986Z,34.20
2022-10-25T00:23:07.204Z,33.90
2022-10-25T00:26:11.589Z,33.60
2022-10-25T00:29:14.046Z,33.10
2022-10-25T00:32:15.971Z,33.00
2022-10-25T00:35:18.379Z,33.00
2022-10-25T00:38:20.272Z,33.20
2022-10-25T00:41:25.778Z,33.20
2022-10-25T00:44:39.367Z,33.00
2022-10-25T00:48:06.747Z,33.00
2022-10-25T00:51:09.182Z,32.90
2022-10-25T00:54:13.916Z,32.70
2022-10-25T00:57:20.094Z,32.80
2022-10-25T01:00:22.560Z,32.80
2022-10-25T01:03:25.244Z,32.90
2022-10-25T01:06:33.175Z,32.90
2022-10-25T01:09:37.762Z,33.00
2022-10-25T01:12:39.958Z,33.20
2022-10-25T01:15:53.333Z,33.40
2022-10-25T01:19:25.853Z,33.40
2022-10-25T01:22:38.159Z,33.10
2022-10-25T01:25:55.658Z,33.10
2022-10-25T01:29:22.383Z,33.00
2022-10-25T01:32:40.971Z,32.90
2022-10-25T01:40:16.362Z,32.70
2022-10-25T01:43:39.633Z,32.80
2022-10-25T01:46:52.306Z,32.40
2022-10-25T01:50:05.056Z,32.50
2022-10-25T01:53:07.168Z,32.40
2022-10-25T01:56:09.296Z,32.20
2022-10-25T01:59:29.415Z,32.10
2022-10-25T02:02:46.253Z,32.10
2022-10-25T02:06:09.905Z,31.90
2022-10-25T02:09:25.026Z,32.10
2022-10-25T02:12:52.198Z,31.90
2022-10-25T02:16:02.903Z,32.10
2022-10-25T02:19:07.551Z,32.20
2022-10-25T02:22:12.059Z,32.50
2022-10-25T02:25:14.946Z,32.60
2022-10-25T02:28:19.576Z,33.40
2022-10-25T02:31:24.120Z,32.60
2022-10-25T02:34:25.989Z,32.40
2022-10-25T02:37:28.089Z,32.30
2022-10-25T02:40:30.394Z,32.40
2022-10-25T02:43:32.814Z,32.40
2022-10-25T02:46:35.166Z,32.30
2022-10-25T02:49:37.436Z,32.00
2022-10-25T02:52:39.337Z,32.10
2022-10-25T02:55:41.447Z,32.10
2022-10-25T02:58:44.602Z,31.90
2022-10-25T03:01:46.900Z,32.10
2022-10-25T03:04:48.789Z,32.10
2022-10-25T03:07:50.907Z,32.00
2022-10-25T03:10:53.399Z,32.10
2022-10-25T03:13:55.559Z,32.20
2022-10-25T03:16:57.445Z,32.20
2022-10-25T03:19:59.550Z,32.30
2022-10-25T03:23:01.957Z,32.40
2022-10-25T03:26:04.170Z,32.40
2022-10-25T03:29:06.051Z,32.50
2022-10-25T03:32:08.164Z,32.70
2022-10-25T03:35:10.115Z,32.80
2022-10-25T03:38:12.163Z,32.60
2022-10-25T03:41:15.272Z,32.60
2022-10-25T03:44:17.649Z,32.60
2022-10-25T03:47:19.546Z,32.90
2022-10-25T03:50:21.698Z,32.90
2022-10-25T03:53:23.593Z,32.90
2022-10-25T03:56:25.672Z,32.70
2022-10-25T03:59:28.138Z,32.90
2022-10-25T04:02:30.262Z,32.80
2022-10-25T04:05:32.861Z,33.00
2022-10-25T04:08:34.966Z,32.80
2022-10-25T04:11:36.888Z,32.80
2022-10-25T04:14:39.022Z,32.60
2022-10-25T04:17:41.141Z,32.60
2022-10-25T04:20:43.214Z,32.70
2022-10-25T04:23:45.127Z,32.80
2022-10-25T04:26:47.194Z,32.70
2022-10-25T04:29:49.218Z,32.80
2022-10-25T04:32:51.797Z,32.90
2022-10-25T04:35:57.642Z,32.80
2022-10-25T04:38:59.743Z,32.90
2022-10-25T04:42:01.658Z,32.90
2022-10-25T04:45:04.149Z,33.00
2022-10-25T04:48:06.182Z,33.00
2022-10-25T04:51:09.786Z,33.00
2022-10-25T04:54:14.605Z,32.90
2022-10-25T04:57:17.071Z,32.90
2022-10-25T05:00:18.998Z,32.90
2022-10-25T05:03:21.220Z,32.80
2022-10-25T05:06:26.465Z,32.90
2022-10-25T05:09:28.595Z,33.00
2022-10-25T05:12:30.503Z,32.80
2022-10-25T05:15:32.628Z,32.60
2022-10-25T05:18:35.384Z,32.60
2022-10-25T05:21:37.478Z,32.60
2022-10-25T05:24:39.336Z,32.40
2022-10-25T05:27:41.542Z,32.20
2022-10-25T05:30:44.163Z,32.20
2022-10-25T05:33:51.495Z,32.30
2022-10-25T05:36:53.666Z,32.30
2022-10-25T05:39:55.754Z,32.20
2022-10-25T05:42:57.721Z,32.10
2022-10-25T05:46:09.013Z,32.30
2022-10-25T05:49:12.192Z,32.40
2022-10-25T05:52:14.339Z,32.50
2022-10-25T05:55:16.266Z,32.70
2022-10-25T05:58:18.390Z,32.70
2022-10-25T06:01:22.227Z,33.00
2022-10-25T06:04:24.518Z,33.10
2022-10-25T06:07:26.449Z,33.20
2022-10-25T06:10:28.565Z,33.00
2022-10-25T06:13:30.824Z,33.30
2022-10-25T06:16:33.384Z,33.10
2022-10-25T06:19:35.366Z,33.00
2022-10-25T06:22:37.467Z,32.90
2022-10-25T06:25:39.441Z,33.80
2022-10-25T06:28:42.236Z,32.90
2022-10-25T06:31:44.689Z,32.60
2022-10-25T06:34:46.956Z,32.50
2022-10-25T06:37:48.899Z,32.60
2022-10-25T06:40:51.279Z,32.60
2022-10-25T06:43:53.923Z,32.60
2022-10-25T06:47:16.489Z,32.30
2022-10-25T06:50:18.336Z,32.30
2022-10-25T06:53:20.455Z,32.40
2022-10-25T06:56:22.353Z,32.50
2022-10-25T06:59:24.734Z,32.30
2022-10-25T07:02:26.961Z,32.30
2022-10-25T07:05:29.159Z,32.40
2022-10-25T07:08:31.127Z,32.50
2022-10-25T07:11:33.596Z,32.20
2022-10-25T07:14:35.607Z,32.40
2022-10-25T07:17:37.805Z,32.60
2022-10-25T07:20:39.743Z,32.40
2022-10-25T07:23:42.808Z,32.20
2022-10-25T07:26:44.730Z,32.10
2022-10-25T07:29:46.937Z,32.40
2022-10-25T07:32:49.140Z,32.50
2022-10-25T07:36:05.943Z,32.50
2022-10-25T07:39:12.500Z,32.50
2022-10-25T07:42:14.676Z,32.40
2022-10-25T07:45:20.305Z,32.00
2022-10-25T07:48:25.796Z,31.90
2022-10-25T07:51:27.792Z,31.60
2022-10-25T07:54:29.916Z,31.60
2022-10-25T07:57:31.876Z,31.50
2022-10-25T08:00:36.065Z,32.40
2022-10-25T08:03:38.230Z,32.30
2022-10-25T08:06:40.347Z,31.70
2022-10-25T08:09:42.268Z,31.70
2022-10-25T08:12:44.388Z,31.50
2022-10-25T08:15:54.154Z,31.40
2022-10-25T08:18:56.281Z,31.00
2022-10-25T08:21:58.201Z,31.00
2022-10-25T08:25:00.966Z,30.90
2022-10-25T08:28:02.908Z,31.00
2022-10-25T08:31:05.252Z,31.20
2022-10-25T08:34:07.346Z,31.20
2022-10-25T08:37:12.933Z,31.20
2022-10-25T08:40:21.364Z,30.70
2022-10-25T08:43:52.305Z,30.60
2022-10-25T08:46:57.287Z,30.60
2022-10-25T08:50:08.901Z,31.00
2022-10-25T08:53:23.555Z,30.30
2022-10-25T08:56:27.143Z,29.80
2022-10-25T08:59:35.498Z,30.10
2022-10-25T09:02:49.054Z,29.90
2022-10-25T09:06:10.099Z,30.00
2022-10-25T09:09:30.618Z,29.60
2022-10-25T09:12:45.119Z,29.90
2022-10-25T09:16:07.329Z,30.00
2022-10-25T09:19:17.975Z,29.60
2022-10-25T09:23:05.439Z,29.90
2022-10-25T09:26:19.850Z,30.00
2022-10-25T09:29:36.859Z,30.00
2022-10-25T09:32:49.966Z,29.90
2022-10-25T09:35:56.591Z,28.90
2022-10-25T09:39:02.242Z,29.40
2022-10-25T09:42:07.555Z,29.00
2022-10-25T09:45:32.016Z,29.30
2022-10-25T09:48:50.836Z,29.20
2022-10-25T09:52:33.215Z,29.40
2022-10-25T09:55:53.347Z,30.00
2022-10-25T09:58:57.029Z,30.00
2022-10-25T10:01:59.357Z,30.10
2022-10-25T10:05:01.421Z,30.80
2022-10-25T10:08:03.621Z,30.70
2022-10-25T10:11:16.316Z,30.70
2022-10-25T10:14:31.357Z,30.30
2022-10-25T10:17:33.442Z,30.00
2022-10-25T10:20:35.647Z,30.10
2022-10-25T10:23:51.620Z,30.00
2022-10-25T10:26:58.408Z,30.30
2022-10-25T10:30:08.807Z,30.00
2022-10-25T10:33:16.439Z,30.30
2022-10-25T10:36:36.372Z,30.10
2022-10-25T10:40:16.734Z,30.30
2022-10-25T10:43:36.729Z,30.00
2022-10-25T10:46:45.470Z,30.10
2022-10-25T10:49:48.301Z,30.40
2022-10-25T10:52:56.536Z,30.30
2022-10-25T10:56:06.745Z,30.20
2022-10-25T10:59:45.392Z,30.50
2022-10-25T11:02:47.939Z,30.40
2022-10-25T11:05:54.303Z,30.00
2022-10-25T11:09:17.741Z,30.90
2022-10-25T11:12:20.082Z,30.00
2022-10-25T11:15:45.717Z,29.90
2022-10-25T11:19:17.539Z,29.70
2022-10-25T11:23:15.414Z,29.70
2022-10-25T11:26:37.361Z,29.50
2022-10-25T11:30:03.688Z,29.40
2022-10-25T11:33:16.625Z,29.40
2022-10-25T11:36:42.505Z,29.10
2022-10-25T11:39:56.463Z,29.20
2022-10-25T11:43:16.964Z,29.10
2022-10-25T11:46:52.615Z,29.10
2022-10-25T11:50:20.819Z,29.10
2022-10-25T11:53:28.048Z,29.20
2022-10-25T11:56:39.648Z,29.00
2022-10-25T11:59:55.702Z,29.30
2022-10-25T12:03:23.942Z,29.10
2022-10-25T12:06:54.224Z,29.20
2022-10-25T12:10:20.967Z,28.90
2022-10-25T12:13:31.002Z,28.90
2022-10-25T12:16:36.465Z,29.00
2022-10-25T12:19:45.721Z,28.90
2022-10-25T12:22:50.557Z,29.00
2022-10-25T12:26:01.318Z,29.00
2022-10-25T12:29:05.962Z,28.90
2022-10-25T12:32:20.216Z,29.20
2022-10-25T12:35:28.525Z,28.60
2022-10-25T12:38:38.626Z,28.60
2022-10-25T12:41:44.535Z,28.70
2022-10-25T12:45:22.612Z,29.30
2022-10-25T12:48:27.624Z,28.90
2022-10-25T12:52:00.486Z,28.60
2022-10-25T12:55:36.135Z,29.00
2022-10-25T12:58:47.866Z,29.00
2022-10-25T13:02:21.199Z,28.70
2022-10-25T13:05:32.140Z,28.90
2022-10-25T13:08:35.148Z,29.00
2022-10-25T13:11:59.518Z,29.70
2022-10-25T13:15:03.429Z,30.40
2022-10-25T13:18:07.694Z,30.40
2022-10-25T13:21:48.756Z,30.70
2022-10-25T13:24:53.494Z,31.20
2022-10-25T13:28:14.080Z,30.40
2022-10-25T13:31:34.640Z,30.70
2022-10-25T13:34:36.913Z,30.70
2022-10-25T13:37:41.629Z,30.70
2022-10-25T13:40:44.377Z,31.20
2022-10-25T13:44:04.584Z,30.90
2022-10-25T13:47:28.324Z,31.70
2022-10-25T13:50:41.891Z,31.30
2022-10-25T13:53:50.197Z,31.50
2022-10-25T13:56:53.993Z,31.40
2022-10-25T14:00:01.847Z,31.40
2022-10-25T14:03:04.236Z,31.40
2022-10-25T14:06:13.885Z,30.90
2022-10-25T14:09:27.523Z,31.00
2022-10-25T14:12:30.872Z,31.10
2022-10-25T14:15:43.579Z,31.10
2022-10-25T14:18:46.168Z,31.10
2022-10-25T14:21:50.971Z,31.30
2022-10-25T14:24:54.963Z,30.90
2022-10-25T14:28:20.886Z,31.30
2022-10-25T14:31:23.040Z,31.40
2022-10-25T14:34:28.707Z,31.30
2022-10-25T14:37:30.691Z,31.40
2022-10-25T14:40:33.346Z,31.20
2022-10-25T14:43:39.243Z,31.20
2022-10-25T14:46:44.631Z,32.00
2022-10-25T14:49:46.648Z,32.30
2022-10-25T14:52:50.690Z,32.80
2022-10-25T14:56:05.234Z,32.60
2022-10-25T14:59:31.070Z,33.20
2022-10-25T15:02:38.062Z,33.60
2022-10-25T15:05:41.053Z,33.20
2022-10-25T15:08:51.512Z,33.40
2022-10-25T15:12:21.786Z,33.60
2022-10-25T15:15:37.463Z,33.30
2022-10-25T15:18:39.614Z,33.40
2022-10-25T15:21:50.457Z,33.30
2022-10-25T15:24:52.913Z,33.30
2022-10-25T15:27:55.172Z,33.00
2022-10-25T15:31:04.295Z,32.80
2022-10-25T15:34:06.429Z,32.50
2022-10-25T15:37:14.043Z,32.50
2022-10-25T15:40:16.591Z,32.30
2022-10-25T15:43:18.844Z,32.20
2022-10-25T15:46:31.037Z,32.30
2022-10-25T15:49:33.145Z,32.40
2022-10-25T15:52:35.022Z,32.40
2022-10-25T15:55:37.310Z,32.60
2022-10-25T15:58:39.246Z,32.60
2022-10-25T16:01:44.083Z,32.70
2022-10-25T16:04:46.500Z,32.70
2022-10-25T16:07:49.616Z,32.70
2022-10-25T16:10:52.517Z,33.00
2022-10-25T16:13:54.780Z,33.10
2022-10-25T16:16:59.728Z,33.00
2022-10-25T16:20:02.050Z,32.90
2022-10-25T16:23:03.988Z,32.60
2022-10-25T16:26:06.294Z,32.60
2022-10-25T16:29:17.609Z,32.40
2022-10-25T16:32:20.406Z,32.30
2022-10-25T16:35:24.314Z,32.40
2022-10-25T16:38:26.559Z,32.20
2022-10-25T16:41:29.464Z,32.50
2022-10-25T16:44:31.718Z,32.20
2022-10-25T16:47:33.793Z,32.40
2022-10-25T16:50:36.067Z,32.70
2022-10-25T16:53:38.164Z,32.90
2022-10-25T16:56:40.368Z,33.00
2022-10-25T16:59:42.692Z,33.00
2022-10-25T17:02:45.015Z,33.00
2022-10-25T17:05:47.064Z,33.10
2022-10-25T17:08:49.430Z,33.40
2022-10-25T17:11:51.370Z,33.50
2022-10-25T17:14:53.432Z,33.50
2022-10-25T17:17:55.441Z,33.40
2022-10-25T17:20:58.080Z,33.50
2022-10-25T17:24:00.323Z,33.40
2022-10-25T17:27:02.820Z,33.40
2022-10-25T17:30:06.143Z,33.30
2022-10-25T17:33:08.348Z,33.10
2022-10-25T17:36:13.654Z,33.10
2022-10-25T17:39:17.134Z,33.70
2022-10-25T17:42:20.262Z,32.80
2022-10-25T17:45:22.519Z,32.60
2022-10-25T17:48:24.555Z,32.60
2022-10-25T17:51:26.737Z,32.60
2022-10-25T17:54:28.765Z,32.70
2022-10-25T17:57:30.827Z,32.50
2022-10-25T18:00:33.207Z,32.50
2022-10-25T18:03:35.828Z,32.60
2022-10-25T18:06:38.728Z,32.50
2022-10-25T18:09:41.251Z,32.50
2022-10-25T18:12:43.463Z,32.30
2022-10-25T18:15:49.729Z,32.30
2022-10-25T18:18:52.989Z,32.40
2022-10-25T18:22:00.540Z,32.40
2022-10-25T18:25:02.695Z,32.50
2022-10-25T18:28:05.236Z,32.60
2022-10-25T18:31:12.615Z,32.50
2022-10-25T18:34:15.108Z,32.60
2022-10-25T18:37:17.155Z,33.00
2022-10-25T18:40:19.537Z,33.10
2022-10-25T18:43:23.514Z,33.20
2022-10-25T18:46:29.332Z,33.20
2022-10-25T18:49:32.334Z,33.10
2022-10-25T18:52:34.906Z,32.90
2022-10-25T18:55:38.129Z,32.80
2022-10-25T18:58:41.093Z,32.70
2022-10-25T19:01:43.838Z,33.00
2022-10-25T19:04:46.518Z,32.70
2022-10-25T19:07:48.807Z,33.00
2022-10-25T19:10:51.854Z,33.00
2022-10-25T19:13:55.623Z,33.70
2022-10-25T19:16:58.702Z,33.00
2022-10-25T19:20:01.249Z,32.90
2022-10-25T19:23:04.358Z,32.70
2022-10-25T19:26:09.737Z,32.70
2022-10-25T19:29:12.384Z,32.80
2022-10-25T19:32:14.970Z,32.80
2022-10-25T19:35:21.867Z,32.60
2022-10-25T19:38:23.933Z,32.50
2022-10-25T19:41:26.459Z,32.50
2022-10-25T19:44:28.567Z,32.40
2022-10-25T19:47:30.980Z,32.00
2022-10-25T19:50:34.935Z,31.90
2022-10-25T19:53:39.038Z,32.10
2022-10-25T19:56:42.945Z,32.10
2022-10-25T19:59:45.859Z,31.90
2022-10-25T20:02:47.887Z,31.70
2022-10-25T20:05:59.606Z,31.50
2022-10-25T20:09:02.528Z,31.50
2022-10-25T20:12:05.589Z,31.50
2022-10-25T20:15:08.360Z,31.20
2022-10-25T20:18:10.533Z,31.00
2022-10-25T20:21:17.429Z,31.00
2022-10-25T20:24:19.814Z,30.90
2022-10-25T20:27:21.706Z,31.00
2022-10-25T20:30:24.275Z,30.80
2022-10-25T20:33:26.171Z,31.00
2022-10-25T20:36:30.924Z,30.80
2022-10-25T20:39:32.861Z,31.40
2022-10-25T20:42:34.993Z,30.90
2022-10-25T20:45:37.064Z,31.10
2022-10-25T20:48:39.292Z,31.10
2022-10-25T20:51:41.184Z,31.10
2022-10-25T20:54:43.322Z,31.10
2022-10-25T20:57:49.170Z,30.70
2022-10-25T21:00:57.379Z,31.20
2022-10-25T21:03:59.764Z,31.10
2022-10-25T21:07:02.319Z,31.20
2022-10-25T21:10:04.485Z,30.70
2022-10-25T21:13:06.646Z,31.20
2022-10-25T21:16:10.951Z,30.90
2022-10-25T21:19:13.068Z,30.80
2022-10-25T21:22:15.009Z,31.40
2022-10-25T21:25:17.319Z,31.30
2022-10-25T21:28:19.226Z,31.50
2022-10-25T21:31:21.303Z,31.60
2022-10-25T21:34:23.292Z,31.40
2022-10-25T21:37:25.644Z,30.70
2022-10-25T21:40:27.593Z,30.80
2022-10-25T21:43:29.711Z,30.80
2022-10-25T21:46:31.606Z,31.10
2022-10-25T21:49:33.711Z,31.10
2022-10-25T21:52:36.368Z,31.20
2022-10-25T21:55:38.463Z,30.70
2022-10-25T21:58:41.870Z,30.60
2022-10-25T22:01:44.279Z,30.30
2022-10-25T22:04:46.469Z,30.40
2022-10-25T22:07:48.774Z,30.20
2022-10-25T22:11:02.142Z,30.40
2022-10-25T22:14:06.650Z,30.10
2022-10-25T22:17:09.191Z,30.10
2022-10-25T22:20:11.443Z,30.40
2022-10-25T22:23:13.569Z,31.00
2022-10-25T22:26:17.750Z,31.10
2022-10-25T22:29:19.660Z,30.40
2022-10-25T22:32:21.767Z,30.40
2022-10-25T22:35:23.904Z,30.00
2022-10-25T22:38:27.296Z,29.70
2022-10-25T22:41:30.309Z,29.70
2022-10-25T22:44:32.543Z,30.00
2022-10-25T22:47:34.405Z,29.90
2022-10-25T22:50:36.497Z,29.80
2022-10-25T22:53:38.952Z,29.80
2022-10-25T22:56:41.093Z,29.80
2022-10-25T22:59:43.207Z,30.30
2022-10-25T23:02:45.466Z,29.60
2022-10-25T23:05:47.497Z,29.30
2022-10-25T23:08:53.081Z,29.40
2022-10-25T23:11:54.939Z,29.40
2022-10-25T23:14:57.036Z,29.30
2022-10-25T23:17:59.640Z,29.30
2022-10-25T23:21:03.223Z,29.20
2022-10-25T23:24:05.587Z,29.60
2022-10-25T23:27:08.499Z,29.40
2022-10-25T23:30:13.089Z,29.30
2022-10-25T23:33:17.062Z,29.30
2022-10-25T23:36:21.664Z,29.30
2022-10-25T23:39:23.794Z,29.20
2022-10-25T23:42:25.722Z,29.30
2022-10-25T23:45:28.136Z,29.30
2022-10-25T23:48:31.014Z,29.10
2022-10-25T23:51:33.099Z,29.90
2022-10-25T23:54:35.027Z,29.60
2022-10-25T23:57:37.203Z,28.80
